Time,TemperatureF,DewpointF,PressureIn,WindDirection,WindDirectionDegrees,WindSpeedMPH,WindSpeedGustMPH,Humidity,HourlyPrecipIn,Conditions,Clouds,dailyrainin,SolarRadiationWatts/m^2,SoftwareType,DateUTC
2013-02-27 00:01:00,25.0,6.0,-100.00,SW,234,3.0,11.0,44,0.00,,,0.00,0.000000,,2013-02-27 07:01:00,
2013-02-27 00:22:00,24.0,6.0,-100.00,SW,228,6.0,9.0,45,0.00,,,0.00,0.000000,,2013-02-27 07:22:00,
2013-02-27 00:32:00,24.0,6.0,-100.00,SW,228,6.0,9.0,45,0.00,,,0.00,0.000000,,2013-02-27 07:32:00,
2013-02-27 00:42:00,24.0,6.0,-100.00,SW,228,6.0,9.0,45,0.00,,,0.00,0.000000,,2013-02-27 07:42:00,
2013-02-27 00:52:00,24.0,6.0,-100.00,SW,228,6.0,9.0,45,0.00,,,0.00,0.000000,,2013-02-27 07:52:00,
2013-02-27 01:01:00,24.0,6.0,-100.00,SW,228,6.0,9.0,45,0.00,,,0.00,0.000000,,2013-02-27 08:01:00,
2013-02-27 01:22:00,24.0,5.0,-100.00,SW,217,10.0,12.0,44,0.00,,,0.00,0.000000,,2013-02-27 08:22:00,
2013-02-27 01:32:00,24.0,5.0,-100.00,SW,217,10.0,12.0,44,0.00,,,0.00,0.000000,,2013-02-27 08:32:00,
2013-02-27 01:42:00,24.0,5.0,-100.00,SW,217,10.0,12.0,44,0.00,,,0.00,0.000000,,2013-02-27 08:42:00,
2013-02-27 01:52:00,24.0,5.0,-100.00,SW,217,10.0,12.0,44,0.00,,,0.00,0.000000,,2013-02-27 08:52:00,
2013-02-27 02:01:00,24.0,5.0,-100.00,SW,217,10.0,12.0,44,0.00,,,0.00,0.000000,,2013-02-27 09:01:00,
2013-02-27 02:32:00,22.0,4.0,-100.00,WSW,256,4.0,13.0,46,0.00,,,0.00,0.000000,,2013-02-27 09:32:00,
2013-02-27 02:42:00,22.0,4.0,-100.00,WSW,256,4.0,13.0,46,0.00,,,0.00,0.000000,,2013-02-27 09:42:00,
2013-02-27 02:52:00,22.0,4.0,-100.00,WSW,256,4.0,13.0,46,0.00,,,0.00,0.000000,,2013-02-27 09:52:00,
2013-02-27 03:01:00,22.0,4.0,-100.00,WSW,256,4.0,13.0,46,0.00,,,0.00,0.000000,,2013-02-27 10:01:00,
2013-02-27 03:32:00,26.0,4.0,-100.00,WSW,254,8.0,9.0,39,0.00,,,0.00,0.000000,,2013-02-27 10:32:00,
2013-02-27 03:42:00,26.0,4.0,-100.00,WSW,254,8.0,9.0,39,0.00,,,0.00,0.000000,,2013-02-27 10:42:00,
2013-02-27 03:52:00,26.0,4.0,-100.00,WSW,254,8.0,9.0,39,0.00,,,0.00,0.000000,,2013-02-27 10:52:00,
2013-02-27 04:01:00,26.0,4.0,-100.00,WSW,254,8.0,9.0,39,0.00,,,0.00,0.000000,,2013-02-27 11:01:00,
2013-02-27 04:32:00,24.0,3.0,-100.00,WSW,242,6.0,12.0,40,-99.99,,,0.00,0.000000,,2013-02-27 11:32:00,
2013-02-27 04:42:00,24.0,3.0,-100.00,WSW,242,6.0,12.0,40,-99.99,,,0.00,0.000000,,2013-02-27 11:42:00,
2013-02-27 04:52:00,24.0,3.0,-100.00,WSW,242,6.0,12.0,40,-99.99,,,0.00,0.000000,,2013-02-27 11:52:00,
2013-02-27 05:01:00,24.0,3.0,-100.00,WSW,242,6.0,12.0,40,-99.99,,,0.00,0.000000,,2013-02-27 12:01:00,
2013-02-27 05:33:00,23.0,3.0,-100.00,SSW,205,6.0,13.0,41,-99.99,,,0.00,0.000000,,2013-02-27 12:33:00,
2013-02-27 05:42:00,23.0,3.0,-100.00,SSW,205,6.0,13.0,41,-99.99,,,0.00,0.000000,,2013-02-27 12:42:00,
2013-02-27 05:52:00,23.0,3.0,-100.00,SSW,205,6.0,13.0,41,-99.99,,,0.00,0.000000,,2013-02-27 12:52:00,
2013-02-27 06:02:00,23.0,3.0,-100.00,SSW,205,6.0,13.0,41,-99.99,,,0.00,0.000000,,2013-02-27 13:02:00,
2013-02-27 06:32:00,20.0,6.0,-100.00,NNE,27,3.0,10.0,53,0.00,,,0.00,0.000000,,2013-02-27 13:32:00,
2013-02-27 06:42:00,20.0,6.0,-100.00,NNE,27,3.0,10.0,53,0.00,,,0.00,0.000000,,2013-02-27 13:42:00,
2013-02-27 06:52:00,20.0,6.0,-100.00,NNE,27,3.0,10.0,53,0.00,,,0.00,0.000000,,2013-02-27 13:52:00,
2013-02-27 07:01:00,20.0,6.0,-100.00,NNE,27,3.0,10.0,53,0.00,,,0.00,0.000000,,2013-02-27 14:01:00,
2013-02-27 07:22:00,21.0,6.0,-100.00,WSW,256,0.0,7.0,51,0.00,,,0.00,0.000000,,2013-02-27 14:22:00,
2013-02-27 07:32:00,21.0,6.0,-100.00,WSW,256,0.0,7.0,51,0.00,,,0.00,0.000000,,2013-02-27 14:32:00,
2013-02-27 07:42:00,21.0,6.0,-100.00,WSW,256,0.0,7.0,51,0.00,,,0.00,0.000000,,2013-02-27 14:42:00,
2013-02-27 07:52:00,21.0,6.0,-100.00,WSW,256,0.0,7.0,51,0.00,,,0.00,0.000000,,2013-02-27 14:52:00,
2013-02-27 08:01:00,21.0,6.0,-100.00,WSW,256,0.0,7.0,51,0.00,,,0.00,0.000000,,2013-02-27 15:01:00,
2013-02-27 08:32:00,22.0,7.0,-100.00,SSW,202,0.0,5.0,51,0.00,,,0.00,41.000000,,2013-02-27 15:32:00,
2013-02-27 08:42:00,22.0,7.0,-100.00,SSW,202,0.0,5.0,51,0.00,,,0.00,41.000000,,2013-02-27 15:42:00,
2013-02-27 08:52:00,22.0,7.0,-100.00,SSW,202,0.0,5.0,51,0.00,,,0.00,41.000000,,2013-02-27 15:52:00,
2013-02-27 09:01:00,22.0,7.0,-100.00,SSW,202,0.0,5.0,51,0.00,,,0.00,41.000000,,2013-02-27 16:01:00,
2013-02-27 09:22:00,24.0,6.0,-100.00,ESE,116,5.0,6.0,46,0.00,,,0.00,142.000000,,2013-02-27 16:22:00,
2013-02-27 09:32:00,24.0,6.0,-100.00,ESE,116,5.0,6.0,46,0.00,,,0.00,142.000000,,2013-02-27 16:32:00,
2013-02-27 09:42:00,24.0,6.0,-100.00,ESE,116,5.0,6.0,46,0.00,,,0.00,142.000000,,2013-02-27 16:42:00,
2013-02-27 09:52:00,24.0,6.0,-100.00,ESE,116,5.0,6.0,46,0.00,,,0.00,142.000000,,2013-02-27 16:52:00,
2013-02-27 10:01:00,24.0,6.0,-100.00,ESE,116,5.0,6.0,46,0.00,,,0.00,142.000000,,2013-02-27 17:01:00,
2013-02-27 10:21:00,29.0,10.0,-100.00,East,83,2.0,7.0,44,0.00,,,0.00,269.000000,,2013-02-27 17:21:00,
2013-02-27 10:32:00,29.0,10.0,-100.00,East,83,2.0,7.0,44,0.00,,,0.00,269.000000,,2013-02-27 17:32:00,
2013-02-27 10:42:00,29.0,10.0,-100.00,East,83,2.0,7.0,44,0.00,,,0.00,269.000000,,2013-02-27 17:42:00,
2013-02-27 10:52:00,29.0,10.0,-100.00,East,83,2.0,7.0,44,0.00,,,0.00,269.000000,,2013-02-27 17:52:00,
2013-02-27 11:01:00,29.0,10.0,-100.00,East,83,2.0,7.0,44,0.00,,,0.00,269.000000,,2013-02-27 18:01:00,
2013-02-27 11:32:00,31.0,10.0,-100.00,WNW,293,0.0,7.0,40,0.00,,,0.00,229.000000,,2013-02-27 18:32:00,
2013-02-27 11:42:00,31.0,10.0,-100.00,WNW,293,0.0,7.0,40,0.00,,,0.00,229.000000,,2013-02-27 18:42:00,
2013-02-27 11:52:00,31.0,10.0,-100.00,WNW,293,0.0,7.0,40,0.00,,,0.00,229.000000,,2013-02-27 18:52:00,
2013-02-27 12:01:00,31.0,10.0,-100.00,WNW,293,0.0,7.0,40,0.00,,,0.00,229.000000,,2013-02-27 19:01:00,
2013-02-27 12:32:00,35.0,10.0,-100.00,NNE,13,4.0,7.0,35,0.00,,,0.00,396.000000,,2013-02-27 19:32:00,
2013-02-27 12:42:00,35.0,10.0,-100.00,NNE,13,4.0,7.0,35,0.00,,,0.00,396.000000,,2013-02-27 19:42:00,
2013-02-27 12:52:00,35.0,10.0,-100.00,NNE,13,4.0,7.0,35,0.00,,,0.00,396.000000,,2013-02-27 19:52:00,
2013-02-27 13:01:00,35.0,10.0,-100.00,NNE,13,4.0,7.0,35,0.00,,,0.00,396.000000,,2013-02-27 20:01:00,
2013-02-27 13:22:00,38.0,8.0,-100.00,NNE,26,7.0,8.0,28,0.00,,,-99.99,750.000000,,2013-02-27 20:22:00,
2013-02-27 13:32:00,38.0,8.0,-100.00,NNE,26,7.0,8.0,28,0.00,,,-99.99,750.000000,,2013-02-27 20:32:00,
2013-02-27 13:42:00,38.0,8.0,-100.00,NNE,26,7.0,8.0,28,0.00,,,-99.99,750.000000,,2013-02-27 20:42:00,
2013-02-27 13:52:00,38.0,8.0,-100.00,NNE,26,7.0,8.0,28,0.00,,,-99.99,750.000000,,2013-02-27 20:52:00,
2013-02-27 14:01:00,38.0,8.0,-100.00,NNE,26,7.0,8.0,28,0.00,,,-99.99,750.000000,,2013-02-27 21:01:00,
2013-02-27 14:32:00,37.0,7.0,-100.00,NNW,337,9.0,12.0,28,0.00,,,0.00,497.000000,,2013-02-27 21:32:00,
2013-02-27 14:42:00,37.0,7.0,-100.00,NNW,337,9.0,12.0,28,0.00,,,0.00,497.000000,,2013-02-27 21:42:00,
2013-02-27 14:52:00,37.0,7.0,-100.00,NNW,337,9.0,12.0,28,0.00,,,0.00,497.000000,,2013-02-27 21:52:00,
2013-02-27 15:01:00,37.0,7.0,-100.00,NNW,337,9.0,12.0,28,0.00,,,0.00,497.000000,,2013-02-27 22:01:00,
2013-02-27 15:32:00,37.0,5.0,-100.00,NNW,333,8.0,16.0,26,0.00,,,0.00,315.000000,,2013-02-27 22:32:00,
2013-02-27 15:42:00,37.0,5.0,-100.00,NNW,333,8.0,16.0,26,0.00,,,0.00,315.000000,,2013-02-27 22:42:00,
2013-02-27 15:52:00,37.0,5.0,-100.00,NNW,333,8.0,16.0,26,0.00,,,0.00,315.000000,,2013-02-27 22:52:00,
2013-02-27 16:01:00,37.0,5.0,-100.00,NNW,333,8.0,16.0,26,0.00,,,0.00,315.000000,,2013-02-27 23:01:00,
2013-02-27 16:32:00,38.0,4.0,-100.00,NNW,338,10.0,14.0,24,0.00,,,0.00,370.000000,,2013-02-27 23:32:00,
2013-02-27 16:42:00,38.0,4.0,-100.00,NNW,338,10.0,14.0,24,0.00,,,0.00,370.000000,,2013-02-27 23:42:00,
2013-02-27 16:53:00,38.0,4.0,-100.00,NNW,338,10.0,14.0,24,0.00,,,0.00,370.000000,,2013-02-27 23:53:00,
2013-02-27 17:01:00,38.0,4.0,-100.00,NNW,338,10.0,14.0,24,0.00,,,0.00,370.000000,,2013-02-28 00:01:00,
2013-02-27 17:22:00,39.0,6.0,-100.00,North,353,3.0,17.0,25,0.00,,,0.00,153.000000,,2013-02-28 00:22:00,
2013-02-27 17:32:00,39.0,6.0,-100.00,North,353,3.0,17.0,25,0.00,,,0.00,153.000000,,2013-02-28 00:32:00,
2013-02-27 17:42:00,39.0,6.0,-100.00,North,353,3.0,17.0,25,0.00,,,0.00,153.000000,,2013-02-28 00:42:00,
2013-02-27 17:52:00,39.0,6.0,-100.00,North,353,3.0,17.0,25,0.00,,,0.00,153.000000,,2013-02-28 00:52:00,
2013-02-27 18:01:00,39.0,6.0,-100.00,North,353,3.0,17.0,25,0.00,,,0.00,153.000000,,2013-02-28 01:01:00,
2013-02-27 18:32:00,36.0,4.0,-100.00,NW,324,1.0,12.0,26,0.00,,,0.00,90.000000,,2013-02-28 01:32:00,
2013-02-27 18:42:00,36.0,4.0,-100.00,NW,324,1.0,12.0,26,0.00,,,0.00,90.000000,,2013-02-28 01:42:00,
2013-02-27 18:52:00,36.0,4.0,-100.00,NW,324,1.0,12.0,26,0.00,,,0.00,90.000000,,2013-02-28 01:52:00,
2013-02-27 19:01:00,36.0,4.0,-100.00,NW,324,1.0,12.0,26,0.00,,,0.00,90.000000,,2013-02-28 02:01:00,
2013-02-27 19:22:00,32.0,7.0,-100.00,WSW,241,4.0,5.0,35,0.00,,,0.00,1.000000,,2013-02-28 02:22:00,
2013-02-27 19:32:00,32.0,7.0,-100.00,WSW,241,4.0,5.0,35,0.00,,,0.00,1.000000,,2013-02-28 02:32:00,
2013-02-27 19:42:00,32.0,7.0,-100.00,WSW,241,4.0,5.0,35,0.00,,,0.00,1.000000,,2013-02-28 02:42:00,
2013-02-27 19:52:00,32.0,7.0,-100.00,WSW,241,4.0,5.0,35,0.00,,,0.00,1.000000,,2013-02-28 02:52:00,
2013-02-27 20:01:00,32.0,7.0,-100.00,WSW,241,4.0,5.0,35,0.00,,,0.00,1.000000,,2013-02-28 03:01:00,
2013-02-27 20:32:00,31.0,8.0,-100.00,WSW,237,3.0,7.0,38,0.00,,,0.00,0.000000,,2013-02-28 03:32:00,
2013-02-27 20:42:00,31.0,8.0,-100.00,WSW,237,3.0,7.0,38,0.00,,,0.00,0.000000,,2013-02-28 03:42:00,
2013-02-27 20:52:00,31.0,8.0,-100.00,WSW,237,3.0,7.0,38,0.00,,,0.00,0.000000,,2013-02-28 03:52:00,
2013-02-27 21:01:00,31.0,8.0,-100.00,WSW,237,3.0,7.0,38,0.00,,,0.00,0.000000,,2013-02-28 04:01:00,
2013-02-27 21:22:00,30.0,9.0,-100.00,NNW,337,3.0,8.0,40,0.00,,,0.00,0.000000,,2013-02-28 04:22:00,
2013-02-27 21:32:00,30.0,9.0,-100.00,NNW,337,3.0,8.0,40,0.00,,,0.00,0.000000,,2013-02-28 04:32:00,
2013-02-27 21:42:00,30.0,9.0,-100.00,NNW,337,3.0,8.0,40,0.00,,,0.00,0.000000,,2013-02-28 04:42:00,
2013-02-27 21:52:00,30.0,9.0,-100.00,NNW,337,3.0,8.0,40,0.00,,,0.00,0.000000,,2013-02-28 04:52:00,
2013-02-27 22:01:00,30.0,9.0,-100.00,NNW,337,3.0,8.0,40,0.00,,,0.00,0.000000,,2013-02-28 05:01:00,
2013-02-27 22:22:00,29.0,9.0,-100.00,WSW,246,5.0,12.0,43,0.00,,,0.00,0.000000,,2013-02-28 05:22:00,
2013-02-27 22:32:00,29.0,9.0,-100.00,WSW,246,5.0,12.0,43,0.00,,,0.00,0.000000,,2013-02-28 05:32:00,
2013-02-27 22:42:00,29.0,9.0,-100.00,WSW,246,5.0,12.0,43,0.00,,,0.00,0.000000,,2013-02-28 05:42:00,
2013-02-27 22:52:00,29.0,9.0,-100.00,WSW,246,5.0,12.0,43,0.00,,,0.00,0.000000,,2013-02-28 05:52:00,
2013-02-27 23:01:00,29.0,9.0,-100.00,WSW,246,5.0,12.0,43,0.00,,,0.00,0.000000,,2013-02-28 06:01:00,
2013-02-27 23:32:00,26.0,8.0,-100.00,WSW,248,4.0,9.0,45,0.00,,,0.00,0.000000,,2013-02-28 06:32:00,
2013-02-27 23:42:00,26.0,8.0,-100.00,WSW,248,4.0,9.0,45,0.00,,,0.00,0.000000,,2013-02-28 06:42:00,
2013-02-27 23:52:00,26.0,8.0,-100.00,WSW,248,4.0,9.0,45,0.00,,,0.00,0.000000,,2013-02-28 06:52:00,